Time;durP1;ratioP1;P1;durP2;ratioP2;P2;SDS_P1;SDS_P2;PMS_P1;PMS_P2;Temp;Humidity;BMP_temperature;BMP_pressure;BME280_temperature;BME280_humidity;BME280_pressure;Samples;Min_cycle;Max_cycle;Signal;HPM_P1;HPM_P2
2021/03/05 00:02:49;;;;;;;13.22;8.30;;;;;;;1.78;71.42;100043.87;147821;1146;104537;-75
2021/03/05 00:05:54;;;;;;;11.22;6.15;;;;;;;1.79;71.48;100051.67;147761;1147;104621;-74
2021/03/05 00:08:57;;;;;;;35.30;17.27;;;;;;;1.78;70.96;100049.97;147755;1147;104453;-73
2021/03/05 00:12:00;;;;;;;43.30;19.10;;;;;;;1.82;70.22;100055.88;147571;1147;104566;-76
2021/03/05 00:15:06;;;;;;;20.00;8.98;;;;;;;1.73;69.69;100058.19;147743;1147;104831;-76
2021/03/05 00:18:10;;;;;;;12.25;6.53;;;;;;;1.74;69.30;100048.50;147782;1147;104538;-77
2021/03/05 00:21:13;;;;;;;8.28;3.70;;;;;;;1.73;69.79;100052.05;147769;1148;104612;-75
2021/03/05 00:24:16;;;;;;;9.93;3.45;;;;;;;1.70;69.14;100054.91;147795;1147;104568;-79
2021/03/05 00:27:19;;;;;;;7.47;3.45;;;;;;;1.68;70.35;100059.43;147780;1147;104661;-73
2021/03/05 00:30:24;;;;;;;9.33;4.00;;;;;;;1.71;70.34;100059.20;147753;1146;104550;-74
2021/03/05 00:33:27;;;;;;;9.88;3.60;;;;;;;1.74;69.79;100051.13;147766;1146;104899;-74
2021/03/05 00:36:30;;;;;;;8.50;3.98;;;;;;;1.74;69.69;100054.59;147673;1147;104812;-77
2021/03/05 00:39:33;;;;;;;9.00;4.30;;;;;;;1.70;70.17;100054.91;147771;1147;104545;-77
2021/03/05 00:42:36;;;;;;;9.23;4.37;;;;;;;1.72;69.82;100051.22;147680;1147;104722;-76
2021/03/05 00:45:39;;;;;;;8.40;4.28;;;;;;;1.78;70.64;100055.23;147673;1148;104578;-77
2021/03/05 00:48:43;;;;;;;9.67;4.63;;;;;;;1.82;69.47;100050.62;147642;1146;104546;-76
2021/03/05 00:51:47;;;;;;;9.38;4.30;;;;;;;1.81;69.91;100052.41;147257;1146;104536;-78
2021/03/05 00:54:51;;;;;;;10.25;5.40;;;;;;;1.84;70.05;100048.72;147465;1147;104460;-77
2021/03/05 00:57:54;;;;;;;9.03;4.65;;;;;;;1.87;70.17;100051.16;147603;1147;104604;-77
2021/03/05 01:00:59;;;;;;;12.33;4.78;;;;;;;1.89;70.68;100039.58;147788;1147;104473;-79
2021/03/05 01:04:02;;;;;;;8.38;4.22;;;;;;;1.89;69.20;100039.58;147763;1147;104552;-77
2021/03/05 01:07:12;;;;;;;8.90;5.03;;;;;;;1.81;69.87;100046.28;147783;1147;104722;-80
2021/03/05 01:10:17;;;;;;;9.53;4.87;;;;;;;1.76;70.06;100041.34;147856;1146;104535;-77
2021/03/05 01:13:20;;;;;;;10.93;4.80;;;;;;;1.76;69.84;100046.61;147769;1147;104496;-79
2021/03/05 01:16:23;;;;;;;7.33;3.90;;;;;;;1.79;70.08;100046.41;147751;1147;104495;-76
2021/03/05 01:19:28;;;;;;;9.13;4.62;;;;;;;1.79;69.82;100050.81;147746;1147;104543;-77
2021/03/05 01:22:31;;;;;;;7.78;4.08;;;;;;;1.83;69.87;100042.62;147814;1146;104531;-76
2021/03/05 01:25:35;;;;;;;9.95;4.47;;;;;;;1.84;70.32;100046.09;147800;1148;104457;-77
2021/03/05 01:28:40;;;;;;;10.55;4.25;;;;;;;1.81;69.27;100048.92;147713;1147;104546;-77
2021/03/05 01:31:43;;;;;;;7.90;3.45;;;;;;;1.74;70.26;100043.23;147699;1147;104535;-75
2021/03/05 01:34:47;;;;;;;10.27;3.93;;;;;;;1.71;69.22;100043.42;147725;1147;104473;-76
2021/03/05 01:37:50;;;;;;;7.22;3.40;;;;;;;1.71;69.75;100038.16;147767;1148;104739;-74
2021/03/05 01:40:53;;;;;;;7.17;3.83;;;;;;;1.72;70.13;100042.50;147796;1147;104566;-74
2021/03/05 01:43:57;;;;;;;8.13;3.43;;;;;;;1.69;69.84;100037.42;147741;1147;104477;-73
2021/03/05 01:47:00;;;;;;;12.63;6.58;;;;;;;1.71;69.25;100032.91;147719;1146;104473;-75
2021/03/05 01:50:10;;;;;;;7.63;3.77;;;;;;;1.72;69.87;100037.23;147786;1147;104538;-73
2021/03/05 01:53:13;;;;;;;19.57;9.68;;;;;;;1.67;69.87;100040.15;147732;1147;104566;-73
2021/03/05 01:56:32;;;;;;;9.03;4.20;;;;;;;1.68;69.56;100033.13;147781;1146;104572;-74
2021/03/05 01:59:35;;;;;;;13.72;6.30;;;;;;;1.69;69.82;100038.26;147681;1148;104951;-74
2021/03/05 02:02:38;;;;;;;8.85;3.60;;;;;;;1.73;69.89;100039.77;147704;1147;104557;-78
2021/03/05 02:05:42;;;;;;;7.33;3.92;;;;;;;1.75;69.16;100044.91;147554;1147;104617;-75
2021/03/05 02:08:45;;;;;;;12.47;4.12;;;;;;;1.75;69.40;100043.14;147264;1147;104567;-77
2021/03/05 02:11:48;;;;;;;9.00;4.05;;;;;;;1.76;68.96;100036.08;147443;1147;104524;-79
2021/03/05 02:14:51;;;;;;;7.75;3.92;;;;;;;1.75;69.27;100050.16;147315;1147;104537;-76
2021/03/05 02:18:04;;;;;;;9.63;4.17;;;;;;;1.72;68.98;100045.13;147545;1148;104465;-75
2021/03/05 02:21:34;;;;;;;11.60;4.70;;;;;;;1.68;69.69;100048.91;147757;1145;104549;-77
2021/03/05 02:25:02;;;;;;;8.48;4.87;;;;;;;1.59;70.43;100047.71;147772;1147;104700;-77
2021/03/05 02:28:40;;;;;;;10.43;4.78;;;;;;;1.52;69.92;100049.91;147744;1147;104539;-75
2021/03/05 02:31:47;;;;;;;9.15;4.45;;;;;;;1.50;70.24;100050.94;147588;1148;104470;-76
2021/03/05 02:34:52;;;;;;;12.03;5.60;;;;;;;1.50;69.92;100061.45;147302;1145;104461;-77
2021/03/05 02:37:57;;;;;;;8.30;4.93;;;;;;;1.43;70.28;100055.77;147793;1147;104546;-76
2021/03/05 02:41:03;;;;;;;9.38;5.20;;;;;;;1.48;69.69;100068.60;147433;1146;104956;-77
2021/03/05 02:44:12;;;;;;;11.73;5.10;;;;;;;1.40;69.78;100071.73;147520;1147;104861;-76
2021/03/05 02:47:19;;;;;;;9.33;4.78;;;;;;;1.36;69.74;100072.88;147797;1147;104495;-77
2021/03/05 02:50:24;;;;;;;10.32;4.87;;;;;;;1.42;70.22;100084.78;147761;1147;104472;-75
2021/03/05 02:53:30;;;;;;;10.67;4.90;;;;;;;1.40;70.19;100073.52;147784;1147;104538;-76
2021/03/05 02:56:37;;;;;;;11.08;6.35;;;;;;;1.42;70.24;100080.36;147745;1145;104648;-76
2021/03/05 02:59:42;;;;;;;10.30;6.27;;;;;;;1.42;69.86;100080.36;147784;1148;104537;-75
2021/03/05 03:02:48;;;;;;;12.30;6.25;;;;;;;1.41;70.36;100088.37;147744;1148;104531;-74
2021/03/05 03:05:52;;;;;;;11.07;5.50;;;;;;;1.40;69.78;100087.50;147557;1147;104547;-76
2021/03/05 03:08:59;;;;;;;12.23;6.23;;;;;;;1.35;69.86;100089.60;147791;1147;104472;-75
2021/03/05 03:12:03;;;;;;;12.23;5.67;;;;;;;1.33;70.07;100086.23;148924;1147;104539;-75
2021/03/05 03:15:11;;;;;;;12.03;6.05;;;;;;;1.33;70.26;100091.48;147800;1147;104556;-76
2021/03/05 03:18:15;;;;;;;12.80;5.83;;;;;;;1.30;69.55;100096.93;147638;1146;104546;-72
2021/03/05 03:21:20;;;;;;;14.05;5.67;;;;;;;1.29;70.24;100098.72;147431;1147;104454;-71
2021/03/05 03:24:23;;;;;;;10.20;4.97;;;;;;;1.27;69.78;100100.61;147433;1147;104552;-71
2021/03/05 03:27:28;;;;;;;7.35;3.83;;;;;;;1.22;69.47;100104.47;147435;1147;104578;-73
2021/03/05 03:30:31;;;;;;;8.88;4.25;;;;;;;1.21;69.47;100108.02;147307;1147;104535;-72
2021/03/05 03:33:35;;;;;;;8.10;3.98;;;;;;;1.23;69.31;100101.72;147217;1148;104547;-71
2021/03/05 03:36:40;;;;;;;9.13;3.90;;;;;;;1.24;69.72;100110.47;147442;1148;104489;-71
2021/03/05 03:39:44;;;;;;;9.85;4.00;;;;;;;1.11;69.40;100105.13;147783;1148;104473;-72
2021/03/05 03:42:47;;;;;;;7.85;3.95;;;;;;;1.11;69.44;100107.75;147800;1147;104549;-73
2021/03/05 03:45:51;;;;;;;9.65;4.42;;;;;;;1.15;69.67;100112.71;147650;1147;104506;-71
2021/03/05 03:48:58;;;;;;;9.50;3.87;;;;;;;1.14;69.38;100111.04;147669;1147;104401;-71
2021/03/05 03:52:07;;;;;;;10.20;4.20;;;;;;;1.14;69.88;100124.18;147754;1147;104472;-71
2021/03/05 03:55:12;;;;;;;7.92;3.62;;;;;;;1.10;70.11;100127.11;147904;1147;104546;-74
2021/03/05 03:58:16;;;;;;;7.37;3.10;;;;;;;1.10;69.82;100122.69;147561;1147;104623;-72
2021/03/05 04:01:22;;;;;;;6.87;2.55;;;;;;;1.11;69.26;100129.61;147728;1147;104548;-74
2021/03/05 04:04:31;;;;;;;5.70;3.05;;;;;;;1.01;69.49;100123.25;147754;1147;104452;-73
2021/03/05 04:07:37;;;;;;;7.47;2.97;;;;;;;1.02;69.05;100126.72;147771;1147;104525;-74
2021/03/05 04:10:42;;;;;;;6.97;2.95;;;;;;;1.07;69.45;100128.13;147460;1147;104492;-76
2021/03/05 04:13:46;;;;;;;14.35;6.67;;;;;;;1.05;69.09;100127.38;147860;1147;104553;-74
2021/03/05 04:16:51;;;;;;;7.60;3.40;;;;;;;1.06;69.41;100131.70;147616;1146;104541;-73
2021/03/05 04:19:55;;;;;;;8.97;3.83;;;;;;;1.08;69.21;100140.33;147607;1148;104535;-73
2021/03/05 04:22:59;;;;;;;8.40;3.33;;;;;;;1.08;69.34;100150.84;147814;1147;104452;-73
2021/03/05 04:26:02;;;;;;;8.15;3.37;;;;;;;1.07;69.57;100157.02;147835;1146;104470;-70
2021/03/05 04:29:06;;;;;;;6.75;3.52;;;;;;;1.06;69.24;100157.11;147535;1148;104616;-70
2021/03/05 04:32:09;;;;;;;5.08;2.40;;;;;;;1.00;69.20;100158.34;147837;1148;105004;-76
2021/03/05 04:35:13;;;;;;;6.62;2.60;;;;;;;0.92;69.94;100165.84;147771;1146;104465;-73
2021/03/05 04:38:16;;;;;;;5.60;2.58;;;;;;;0.91;69.06;100161.55;147709;1147;104611;-75
2021/03/05 04:41:20;;;;;;;8.33;2.80;;;;;;;0.87;69.42;100158.27;147725;1147;104467;-73
2021/03/05 04:44:23;;;;;;;7.47;2.52;;;;;;;0.89;69.36;100161.64;147447;1147;104617;-75
2021/03/05 04:47:26;;;;;;;4.90;2.62;;;;;;;0.90;69.24;100178.23;147808;1147;104585;-73
2021/03/05 04:50:30;;;;;;;7.58;2.70;;;;;;;0.90;69.48;100172.98;147532;1147;104467;-73
2021/03/05 04:53:33;;;;;;;7.10;2.80;;;;;;;0.81;69.44;100170.91;147739;1147;104473;-74
2021/03/05 04:56:37;;;;;;;10.30;3.52;;;;;;;0.75;69.86;100178.23;147794;1146;104460;-74
2021/03/05 04:59:40;;;;;;;7.42;3.08;;;;;;;0.69;69.20;100175.95;147770;1148;104581;-73
2021/03/05 05:02:43;;;;;;;8.10;3.05;;;;;;;0.62;70.01;100179.91;147726;1147;104511;-72
2021/03/05 05:05:46;;;;;;;8.83;3.35;;;;;;;0.62;69.52;100174.66;147664;1145;104473;-75
2021/03/05 05:08:49;;;;;;;12.30;4.42;;;;;;;0.58;69.59;100179.24;147753;1147;104573;-75
2021/03/05 05:11:52;;;;;;;16.17;6.17;;;;;;;0.60;69.37;100187.03;147783;1147;104475;-72
2021/03/05 05:14:56;;;;;;;8.30;2.90;;;;;;;0.54;69.66;100187.38;147734;1147;104535;-73
2021/03/05 05:17:59;;;;;;;9.40;3.02;;;;;;;0.53;69.32;100198.83;147797;1146;104533;-73
2021/03/05 05:21:02;;;;;;;8.73;3.10;;;;;;;0.50;69.76;100199.86;147759;1147;104565;-72
2021/03/05 05:24:09;;;;;;;7.95;2.80;;;;;;;0.43;69.84;100201.14;147794;1148;104530;-72
2021/03/05 05:27:12;;;;;;;9.08;3.05;;;;;;;0.42;69.54;100207.31;147802;1147;104461;-75
2021/03/05 05:30:16;;;;;;;7.95;2.95;;;;;;;0.51;69.92;100214.66;147355;1147;104612;-73
2021/03/05 05:33:19;;;;;;;9.40;3.30;;;;;;;0.58;69.86;100220.41;147302;1146;104627;-72
2021/03/05 05:36:22;;;;;;;9.55;3.87;;;;;;;0.55;69.79;100221.42;147605;1147;104546;-73
2021/03/05 05:39:25;;;;;;;9.97;3.20;;;;;;;0.56;69.91;100224.91;147753;1147;104515;-73
2021/03/05 05:42:29;;;;;;;8.60;2.98;;;;;;;0.57;69.86;100229.21;147703;1148;104550;-71
2021/03/05 05:45:32;;;;;;;6.37;2.37;;;;;;;0.59;70.17;100228.17;147689;1147;104598;-73
2021/03/05 05:48:36;;;;;;;8.10;2.65;;;;;;;0.58;69.76;100233.55;147832;1147;104538;-72
2021/03/05 05:51:41;;;;;;;6.85;2.72;;;;;;;0.57;69.67;100245.80;149529;1148;104492;-74
2021/03/05 05:54:47;;;;;;;9.83;2.85;;;;;;;0.63;69.94;100243.77;147796;1147;104494;-76
2021/03/05 05:57:51;;;;;;;7.50;3.05;;;;;;;0.75;69.76;100246.52;147790;1148;104550;-74
2021/03/05 06:00:56;;;;;;;9.95;3.47;;;;;;;0.73;69.32;100256.28;147815;1147;104592;-72
2021/03/05 06:04:02;;;;;;;8.13;3.35;;;;;;;0.80;69.17;100266.41;147824;1147;104543;-73
2021/03/05 06:07:06;;;;;;;8.97;3.20;;;;;;;0.75;69.48;100266.66;147635;1147;104915;-72
2021/03/05 06:10:11;;;;;;;7.70;3.52;;;;;;;0.68;69.62;100267.98;147531;1147;104490;-72
2021/03/05 06:13:15;;;;;;;9.90;4.08;;;;;;;0.58;69.66;100267.67;147759;1147;104556;-72
2021/03/05 06:16:19;;;;;;;11.35;4.10;;;;;;;0.51;70.14;100267.16;147721;1148;104569;-73
2021/03/05 06:19:24;;;;;;;12.03;4.45;;;;;;;0.56;69.74;100266.92;147803;1147;104479;-72
2021/03/05 06:22:27;;;;;;;7.25;3.55;;;;;;;0.60;70.14;100284.19;147761;1147;104447;-73
2021/03/05 06:25:36;;;;;;;11.70;3.67;;;;;;;0.62;69.72;100284.07;147793;1147;104534;-73
2021/03/05 06:28:39;;;;;;;11.70;5.42;;;;;;;0.65;69.94;100290.00;147786;1147;104461;-73
2021/03/05 06:31:51;;;;;;;18.30;8.63;;;;;;;0.77;69.46;100297.18;147782;1146;104527;-72
2021/03/05 06:34:55;;;;;;;18.20;9.73;;;;;;;0.83;69.79;100303.86;147668;1147;104472;-74
2021/03/05 06:37:58;;;;;;;13.07;5.70;;;;;;;0.90;69.45;100301.70;147686;1146;104460;-73
2021/03/05 06:41:16;;;;;;;9.40;4.20;;;;;;;0.92;69.03;100313.80;147767;1147;104503;-71
2021/03/05 06:44:24;;;;;;;10.17;5.57;;;;;;;0.87;69.09;100318.50;147813;1148;104457;-75
2021/03/05 06:47:27;;;;;;;11.53;4.40;;;;;;;0.77;69.28;100331.33;147748;1147;104515;-72
2021/03/05 06:50:31;;;;;;;9.97;5.50;;;;;;;0.83;69.01;100334.51;147594;1147;104509;-73
2021/03/05 06:53:35;;;;;;;7.55;3.83;;;;;;;0.88;68.81;100337.73;147749;1146;104601;-74
2021/03/05 06:56:39;;;;;;;13.10;7.10;;;;;;;0.93;68.89;100335.69;147774;1147;104544;-73
2021/03/05 06:59:44;;;;;;;10.40;5.42;;;;;;;1.04;69.17;100337.67;147816;1147;104543;-72
2021/03/05 07:02:47;;;;;;;9.18;4.45;;;;;;;1.12;69.22;100343.34;147563;1145;104623;-73
2021/03/05 07:05:53;;;;;;;8.98;4.65;;;;;;;1.18;68.88;100341.18;147575;1147;104548;-74
2021/03/05 07:08:56;;;;;;;6.90;3.60;;;;;;;1.21;68.09;100350.66;147757;1147;104543;-74
2021/03/05 07:12:00;;;;;;;10.43;4.58;;;;;;;1.28;68.36;100356.41;147635;1147;104512;-72
2021/03/05 07:15:07;;;;;;;12.45;5.83;;;;;;;1.42;68.50;100363.47;147409;1147;104861;-72
2021/03/05 07:18:10;;;;;;;13.90;7.50;;;;;;;1.61;68.58;100364.05;147667;1147;104559;-73
2021/03/05 07:21:18;;;;;;;11.00;5.12;;;;;;;1.59;67.46;100365.09;147365;1147;104889;-74
2021/03/05 07:24:23;;;;;;;10.03;6.50;;;;;;;1.63;68.36;100366.59;147765;1147;104451;-73
2021/03/05 07:27:34;;;;;;;11.00;6.33;;;;;;;1.74;67.53;100369.42;147720;1147;104470;-73
2021/03/05 07:30:38;;;;;;;9.40;5.10;;;;;;;1.85;67.98;100363.48;147589;1146;104544;-75
2021/03/05 07:33:49;;;;;;;7.53;4.70;;;;;;;1.83;66.92;100375.89;147756;1147;104634;-73
2021/03/05 07:36:57;;;;;;;8.65;4.47;;;;;;;1.76;67.06;100383.33;147829;1147;104468;-72
2021/03/05 07:40:03;;;;;;;9.83;4.85;;;;;;;1.65;66.87;100375.23;147828;1148;104476;-73
2021/03/05 07:43:07;;;;;;;15.10;6.92;;;;;;;1.54;67.53;100379.37;147751;1147;104455;-74
2021/03/05 07:46:10;;;;;;;16.97;7.93;;;;;;;1.65;68.32;100378.70;147472;1146;104476;-72
2021/03/05 07:49:14;;;;;;;22.93;9.40;;;;;;;1.71;67.40;100395.91;147819;1146;104541;-72
2021/03/05 07:52:20;;;;;;;13.00;6.90;;;;;;;1.65;67.20;100388.39;147826;1146;104534;-73
2021/03/05 07:55:37;;;;;;;9.88;4.45;;;;;;;1.55;66.59;100390.73;147775;1146;104467;-72
2021/03/05 07:58:46;;;;;;;7.65;3.65;;;;;;;1.50;67.37;100398.91;147629;1147;104549;-72
2021/03/05 08:01:59;;;;;;;7.97;3.90;;;;;;;1.48;67.77;100395.52;147264;1147;104503;-71
2021/03/05 08:05:04;;;;;;;8.63;3.80;;;;;;;1.47;67.66;100399.08;147660;1147;104537;-72
2021/03/05 08:08:13;;;;;;;17.02;9.93;;;;;;;1.51;67.42;100405.84;147813;1147;105900;-76
2021/03/05 08:11:27;;;;;;;9.20;4.28;;;;;;;1.48;67.29;100405.17;147819;1147;104549;-72
2021/03/05 08:14:31;;;;;;;9.48;5.62;;;;;;;1.49;67.39;100405.09;147823;1147;104953;-77
2021/03/05 08:17:35;;;;;;;16.20;8.67;;;;;;;1.63;67.97;100406.05;147778;1147;104461;-73
2021/03/05 08:20:53;;;;;;;6.60;3.90;;;;;;;1.81;67.05;100410.20;147797;1147;104697;-73
2021/03/05 08:24:24;;;;;;;8.50;4.83;;;;;;;1.69;67.00;100414.40;147617;1147;104476;-73
2021/03/05 08:27:37;;;;;;;8.85;4.28;;;;;;;1.69;66.92;100411.77;147753;1147;104467;-74
2021/03/05 08:30:44;;;;;;;5.83;2.92;;;;;;;1.69;66.07;100416.19;147736;1147;104518;-73
2021/03/05 08:33:47;;;;;;;15.58;8.90;;;;;;;1.73;65.56;100412.44;147739;1147;104973;-73
2021/03/05 08:36:51;;;;;;;8.23;4.35;;;;;;;1.80;66.04;100411.13;147744;1146;104639;-73
2021/03/05 08:40:28;;;;;;;9.30;5.75;;;;;;;1.96;64.30;100414.53;147855;1147;104544;-72
2021/03/05 08:43:34;;;;;;;8.37;3.97;;;;;;;2.12;66.65;100421.48;147792;1147;104476;-76
2021/03/05 08:46:37;;;;;;;11.50;5.65;;;;;;;2.28;65.90;100418.73;147730;1147;104452;-75
2021/03/05 08:49:41;;;;;;;7.37;3.53;;;;;;;2.41;65.31;100426.73;147563;1147;104489;-74
2021/03/05 08:52:47;;;;;;;9.83;5.70;;;;;;;2.38;65.45;100426.91;147624;1148;104607;-74
2021/03/05 08:55:53;;;;;;;7.90;3.83;;;;;;;2.42;66.16;100429.23;147652;1146;104550;-74
2021/03/05 08:59:03;;;;;;;7.35;3.17;;;;;;;2.35;65.71;100436.69;147764;1147;104476;-73
2021/03/05 09:02:14;;;;;;;7.85;3.62;;;;;;;2.23;65.98;100426.91;147796;1147;104466;-73
2021/03/05 09:05:26;;;;;;;8.10;4.00;;;;;;;2.04;64.38;100436.88;147841;1147;104547;-73
2021/03/05 09:08:29;;;;;;;10.60;6.57;;;;;;;2.06;65.75;100442.90;147630;1147;104618;-73
2021/03/05 09:11:32;;;;;;;12.78;5.70;;;;;;;2.09;64.89;100440.93;147822;1147;104561;-73
2021/03/05 09:14:36;;;;;;;14.25;7.37;;;;;;;2.12;65.88;100439.91;147811;1147;104464;-72
2021/03/05 09:17:45;;;;;;;14.28;8.28;;;;;;;2.37;64.86;100447.14;147823;1145;104505;-74
2021/03/05 09:20:50;;;;;;;13.63;6.40;;;;;;;2.57;65.52;100459.05;147374;1147;104535;-74
2021/03/05 09:23:57;;;;;;;25.37;15.50;;;;;;;2.73;64.90;100454.51;147630;1146;104713;-73
2021/03/05 09:27:19;;;;;;;9.53;4.87;;;;;;;2.95;64.06;100458.39;147693;1148;104489;-72
2021/03/05 09:30:25;;;;;;;9.13;5.95;;;;;;;3.20;65.10;100456.80;147789;1146;104445;-73
2021/03/05 09:33:31;;;;;;;8.15;4.55;;;;;;;3.27;60.23;100450.16;147682;1147;104611;-72
2021/03/05 09:36:36;;;;;;;8.85;4.25;;;;;;;3.23;62.46;100461.85;147707;1147;104474;-75
2021/03/05 09:39:39;;;;;;;4.75;2.70;;;;;;;3.19;64.08;100441.91;147724;1146;104627;-74
2021/03/05 09:42:50;;;;;;;9.03;3.75;;;;;;;3.06;63.14;100450.64;147778;1147;104849;-76
2021/03/05 09:45:54;;;;;;;9.80;4.50;;;;;;;2.97;63.48;100463.57;147776;1147;104542;-75
2021/03/05 09:48:58;;;;;;;9.48;4.85;;;;;;;2.87;62.20;100466.80;147770;1147;104493;-74
2021/03/05 09:52:01;;;;;;;10.03;4.90;;;;;;;2.68;63.44;100464.48;147803;1146;104550;-73
2021/03/05 09:55:06;;;;;;;11.68;5.70;;;;;;;2.40;61.83;100461.89;147678;1146;104457;-73
2021/03/05 09:58:13;;;;;;;10.67;6.17;;;;;;;2.28;63.07;100474.87;147640;1146;104459;-73
2021/03/05 10:01:16;;;;;;;13.38;8.08;;;;;;;2.36;63.44;100480.50;147657;1147;104597;-72
2021/03/05 10:04:19;;;;;;;9.38;4.60;;;;;;;2.63;63.52;100477.09;147588;1148;104655;-73
2021/03/05 10:07:22;;;;;;;6.60;3.67;;;;;;;2.97;62.38;100477.59;147773;1147;104490;-72
2021/03/05 10:10:26;;;;;;;4.50;2.63;;;;;;;3.40;60.65;100476.57;147727;1146;104630;-76
2021/03/05 10:13:51;;;;;;;3.27;1.32;;;;;;;3.70;57.49;100471.88;147730;1147;104518;-75
2021/03/05 10:16:54;;;;;;;2.60;1.10;;;;;;;3.82;56.57;100486.04;147623;1147;104470;-74
2021/03/05 10:20:03;;;;;;;2.40;1.10;;;;;;;3.79;55.52;100491.55;147595;1147;104547;-75
2021/03/05 10:23:07;;;;;;;25.55;14.68;;;;;;;3.75;52.62;100492.67;147569;1147;104500;-76
2021/03/05 10:26:18;;;;;;;13.38;8.10;;;;;;;3.76;57.75;100502.30;147776;1147;105075;-76
2021/03/05 10:29:22;;;;;;;9.93;6.35;;;;;;;3.84;57.09;100499.14;147461;1147;104463;-74
2021/03/05 10:32:27;;;;;;;5.83;2.77;;;;;;;3.86;55.64;100511.27;147733;1148;104457;-76
2021/03/05 10:35:31;;;;;;;3.98;2.30;;;;;;;3.93;51.48;100515.20;147768;1147;104474;-73
2021/03/05 10:38:35;;;;;;;7.60;3.95;;;;;;;3.73;54.20;100527.11;147765;1147;104543;-76
2021/03/05 10:41:38;;;;;;;12.03;4.95;;;;;;;3.63;55.34;100522.53;147546;1147;104588;-76
2021/03/05 10:44:43;;;;;;;7.57;3.10;;;;;;;3.62;53.74;100523.47;147799;1148;104531;-78
2021/03/05 10:47:46;;;;;;;7.25;3.62;;;;;;;3.60;56.43;100520.95;147795;1148;104553;-73
2021/03/05 10:50:49;;;;;;;2.10;1.00;;;;;;;3.79;53.15;100531.14;147696;1146;104496;-73
2021/03/05 10:53:52;;;;;;;1.55;0.80;;;;;;;3.98;51.03;100527.23;147749;1146;104927;-73
2021/03/05 10:56:56;;;;;;;1.33;0.60;;;;;;;4.19;54.41;100538.13;147745;1147;104620;-73
2021/03/05 10:59:59;;;;;;;2.47;0.82;;;;;;;4.30;53.90;100530.32;147800;1146;104561;-73
2021/03/05 11:03:02;;;;;;;3.45;1.20;;;;;;;4.40;52.94;100528.72;147741;1147;104488;-74
2021/03/05 11:06:06;;;;;;;2.33;1.37;;;;;;;4.45;52.05;100536.34;147733;1146;104548;-74
2021/03/05 11:09:09;;;;;;;2.80;1.30;;;;;;;4.39;52.64;100547.31;147769;1147;105039;-73
2021/03/05 11:12:14;;;;;;;2.58;1.32;;;;;;;4.25;48.07;100541.22;147660;1146;104546;-75
2021/03/05 11:15:19;;;;;;;4.47;1.52;;;;;;;4.06;49.10;100556.59;147438;1147;104527;-76
2021/03/05 11:18:22;;;;;;;3.62;1.35;;;;;;;3.88;50.91;100553.41;147635;1148;104497;-76
2021/03/05 11:21:25;;;;;;;6.08;2.27;;;;;;;3.74;50.05;100543.78;147322;1147;104525;-73
2021/03/05 11:24:29;;;;;;;2.80;1.00;;;;;;;3.74;50.75;100546.42;147845;1147;104474;-76
2021/03/05 11:27:34;;;;;;;2.47;1.00;;;;;;;3.96;46.99;100548.45;147502;1146;105183;-71
2021/03/05 11:30:37;;;;;;;4.10;1.30;;;;;;;4.23;52.57;100550.17;147604;1146;104551;-74
2021/03/05 11:33:44;;;;;;;2.50;0.98;;;;;;;4.27;51.21;100536.67;147846;1148;104552;-74
2021/03/05 11:36:48;;;;;;;2.05;0.98;;;;;;;4.25;50.84;100535.06;147786;1148;104522;-76
2021/03/05 11:39:52;;;;;;;3.07;1.60;;;;;;;4.12;51.90;100540.36;147847;1147;104565;-74
2021/03/05 11:42:55;;;;;;;3.20;1.37;;;;;;;4.02;48.42;100542.78;147767;1147;104617;-73
2021/03/05 11:45:58;;;;;;;5.33;2.33;;;;;;;3.79;49.66;100549.61;147845;1147;104484;-73
2021/03/05 11:49:01;;;;;;;17.60;10.53;;;;;;;3.77;48.63;100553.28;147734;1147;104546;-74
2021/03/05 11:52:06;;;;;;;8.18;5.08;;;;;;;3.85;51.42;100550.97;147844;1147;104546;-73
2021/03/05 11:55:11;;;;;;;11.22;5.90;;;;;;;4.05;50.80;100553.13;147721;1147;104492;-74
2021/03/05 11:58:15;;;;;;;5.62;2.83;;;;;;;4.20;49.65;100532.75;147753;1146;104617;-74
2021/03/05 12:01:18;;;;;;;35.47;16.50;;;;;;;4.31;52.05;100546.07;147764;1148;104534;-74
2021/03/05 12:04:21;;;;;;;11.38;4.95;;;;;;;4.28;45.83;100548.91;147799;1147;104479;-74
2021/03/05 12:07:24;;;;;;;6.80;3.67;;;;;;;4.23;48.21;100569.50;147619;1146;104557;-75
2021/03/05 12:10:28;;;;;;;6.30;3.25;;;;;;;4.19;48.44;100560.10;147707;1146;104580;-74
2021/03/05 12:13:31;;;;;;;3.42;1.52;;;;;;;4.01;48.12;100564.84;147715;1147;104737;-76
2021/03/05 12:16:35;;;;;;;3.17;1.47;;;;;;;3.82;49.85;100567.87;147795;1148;104554;-74
2021/03/05 12:19:38;;;;;;;3.73;1.93;;;;;;;3.71;51.30;100571.23;147797;1147;104546;-74
2021/03/05 12:22:41;;;;;;;4.93;2.30;;;;;;;3.68;50.79;100566.14;147683;1148;104492;-74
2021/03/05 12:25:44;;;;;;;5.00;2.17;;;;;;;3.67;50.90;100571.52;147746;1147;104534;-76
2021/03/05 12:28:48;;;;;;;5.87;2.60;;;;;;;3.65;49.24;100573.41;147717;1147;104598;-75
2021/03/05 12:31:51;;;;;;;4.55;2.47;;;;;;;3.73;51.27;100577.25;147705;1147;104510;-73
2021/03/05 12:34:54;;;;;;;7.83;2.87;;;;;;;3.84;50.01;100576.53;147638;1147;104466;-75
2021/03/05 12:37:58;;;;;;;4.45;1.60;;;;;;;3.95;47.87;100580.27;147379;1147;104523;-73
2021/03/05 12:41:01;;;;;;;2.98;1.47;;;;;;;4.05;46.89;100587.45;147690;1147;104553;-78
2021/03/05 12:44:04;;;;;;;2.83;1.30;;;;;;;4.04;48.83;100580.49;147299;1146;104608;-72
2021/03/05 12:47:08;;;;;;;3.12;1.30;;;;;;;4.23;47.01;100579.23;147608;1146;104586;-76
2021/03/05 12:50:12;;;;;;;2.20;1.23;;;;;;;4.28;48.86;100588.53;147731;1147;104461;-76
2021/03/05 12:53:15;;;;;;;2.90;1.12;;;;;;;4.21;45.97;100597.81;147727;1147;104538;-73
2021/03/05 12:56:18;;;;;;;2.58;1.30;;;;;;;4.31;48.46;100587.47;147580;1147;104561;-74
2021/03/05 12:59:22;;;;;;;2.42;1.40;;;;;;;4.27;48.21;100600.07;147824;1147;104636;-74
2021/03/05 13:02:25;;;;;;;2.30;1.25;;;;;;;4.17;47.93;100596.34;147652;1147;104559;-75
2021/03/05 13:05:28;;;;;;;3.22;1.50;;;;;;;4.09;47.88;100598.66;147808;1147;104546;-76
2021/03/05 13:08:32;;;;;;;3.70;1.72;;;;;;;4.15;50.92;100600.88;147770;1147;104522;-74
2021/03/05 13:11:36;;;;;;;4.85;2.00;;;;;;;4.23;49.60;100606.48;147411;1147;104852;-73
2021/03/05 13:14:39;;;;;;;4.22;1.95;;;;;;;4.13;47.85;100605.42;147625;1147;104511;-74
2021/03/05 13:17:42;;;;;;;3.65;1.60;;;;;;;4.08;45.96;100612.80;147271;1147;104506;-78
2021/03/05 13:20:46;;;;;;;5.92;3.50;;;;;;;3.89;46.29;100614.03;147602;1147;104512;-74
2021/03/05 13:23:49;;;;;;;3.52;1.90;;;;;;;3.89;47.09;100616.67;147713;1146;104465;-74
2021/03/05 13:26:52;;;;;;;7.83;3.98;;;;;;;3.86;49.02;100619.51;147531;1147;104951;-74
2021/03/05 13:29:55;;;;;;;11.53;5.92;;;;;;;3.82;48.31;100625.94;147764;1145;104595;-73
2021/03/05 13:33:00;;;;;;;4.22;2.30;;;;;;;3.86;47.55;100624.78;147747;1147;104450;-74
2021/03/05 13:36:04;;;;;;;6.45;3.42;;;;;;;3.75;48.01;100622.00;147726;1147;104457;-73
2021/03/05 13:39:07;;;;;;;4.67;2.05;;;;;;;3.69;48.26;100617.96;147751;1147;104492;-73
2021/03/05 13:42:11;;;;;;;7.20;1.97;;;;;;;3.69;49.52;100625.05;147454;1146;104471;-76
2021/03/05 13:45:16;;;;;;;4.60;2.50;;;;;;;3.63;49.14;100647.39;147762;1147;104578;-74
2021/03/05 13:48:20;;;;;;;5.50;2.73;;;;;;;3.53;49.12;100633.95;147806;1147;104467;-73
2021/03/05 13:51:23;;;;;;;5.63;2.87;;;;;;;3.49;48.86;100647.45;147769;1147;104546;-74
2021/03/05 13:54:27;;;;;;;6.08;3.27;;;;;;;3.39;50.14;100647.19;147474;1148;104528;-74
2021/03/05 13:57:30;;;;;;;7.80;4.33;;;;;;;3.23;51.42;100651.72;147657;1147;104535;-74
2021/03/05 14:00:34;;;;;;;5.40;3.08;;;;;;;3.03;51.41;100653.81;147777;1147;104530;-75
2021/03/05 14:03:37;;;;;;;5.90;3.03;;;;;;;2.91;50.79;100660.69;147802;1148;104551;-78
2021/03/05 14:06:40;;;;;;;12.55;6.08;;;;;;;2.87;52.61;100659.19;147707;1147;104479;-76
2021/03/05 14:09:44;;;;;;;16.42;7.12;;;;;;;2.80;51.29;100659.66;147751;1147;104582;-73